Time;durP1;ratioP1;P1;durP2;ratioP2;P2;SDS_P1;SDS_P2;PMS_P1;PMS_P2;Temp;Humidity;BMP_temperature;BMP_pressure;BME280_temperature;BME280_humidity;BME280_pressure;Samples;Min_cycle;Max_cycle;Signal;HPM_P1;HPM_P2
2023/07/23 00:00:31;;;;;;;20.27;11.85;;;15.60;99.90;;;;;;5045200;28;38726;-80
2023/07/23 00:02:57;;;;;;;18.40;12.45;;;15.60;99.90;;;;;;5060921;28;37456;-80
2023/07/23 00:05:24;;;;;;;19.88;12.25;;;15.60;99.90;;;;;;5059798;28;39671;-80
2023/07/23 00:07:55;;;;;;;19.80;13.15;;;15.60;99.90;;;;;;5067570;28;38820;-80
2023/07/23 00:10:21;;;;;;;19.73;13.15;;;15.50;99.90;;;;;;5058260;28;36895;-80
2023/07/23 00:12:47;;;;;;;23.10;13.30;;;15.50;99.90;;;;;;5055260;28;38803;-80
2023/07/23 00:15:13;;;;;;;22.80;13.55;;;15.50;99.90;;;;;;5050444;28;39180;-80
2023/07/23 00:17:40;;;;;;;22.13;13.77;;;15.50;99.90;;;;;;5064817;28;38365;-80
2023/07/23 00:20:09;;;;;;;21.95;14.88;;;15.50;99.90;;;;;;5061003;28;40018;-80
2023/07/23 00:22:39;;;;;;;21.75;13.75;;;15.50;99.90;;;;;;5047482;28;37926;-80
2023/07/23 00:25:08;;;;;;;21.73;14.55;;;15.50;99.90;;;;;;5055797;28;37924;-80
2023/07/23 00:27:35;;;;;;;21.63;14.00;;;15.50;99.90;;;;;;5048902;28;40049;-80
2023/07/23 00:30:03;;;;;;;27.33;15.38;;;15.50;99.90;;;;;;5048440;28;39083;-80
2023/07/23 00:32:29;;;;;;;21.00;14.02;;;15.50;99.90;;;;;;5047004;28;39301;-80
2023/07/23 00:34:55;;;;;;;19.75;13.57;;;15.50;99.90;;;;;;5062191;28;39066;-80
2023/07/23 00:37:21;;;;;;;17.65;13.23;;;15.60;99.90;;;;;;5049820;28;38543;-80
2023/07/23 00:39:47;;;;;;;23.13;14.15;;;15.60;99.90;;;;;;5059394;28;39706;-80
2023/07/23 00:42:14;;;;;;;19.77;13.65;;;15.60;99.90;;;;;;5061564;28;36249;-80
2023/07/23 00:44:40;;;;;;;22.38;13.77;;;15.60;99.90;;;;;;5056652;28;38940;-80
2023/07/23 00:47:07;;;;;;;22.73;12.48;;;15.60;99.90;;;;;;5052278;28;38314;-78
2023/07/23 00:49:33;;;;;;;21.38;12.90;;;15.60;99.90;;;;;;5052385;28;39033;-78
2023/07/23 00:52:00;;;;;;;21.30;13.02;;;15.60;99.90;;;;;;5050297;28;37652;-78
2023/07/23 00:54:26;;;;;;;17.17;12.73;;;15.60;99.90;;;;;;5056834;28;40734;-78
2023/07/23 00:56:53;;;;;;;17.83;12.65;;;15.60;99.90;;;;;;5051517;28;37708;-78
2023/07/23 00:59:19;;;;;;;18.15;11.82;;;15.60;99.90;;;;;;5056650;28;38760;-78
2023/07/23 01:05:30;;;;;;;20.05;12.13;;;15.60;99.90;;;;;;5178259;23;20058;-80
2023/07/23 01:08:19;;;;;;;19.60;12.63;;;15.60;99.90;;;;;;5006275;28;39882;-80
2023/07/23 01:10:53;;;;;;;20.58;12.82;;;15.60;99.90;;;;;;4997500;28;39669;-80
2023/07/23 01:13:41;;;;;;;16.65;11.82;;;15.50;99.90;;;;;;5002050;28;39077;-80
2023/07/23 01:16:17;;;;;;;14.50;11.05;;;15.60;99.90;;;;;;4977259;28;39593;-80
2023/07/23 01:18:49;;;;;;;17.65;11.55;;;15.60;99.90;;;;;;4988624;28;39911;-79
2023/07/23 01:21:48;;;;;;;16.33;10.93;;;15.60;99.90;;;;;;4975593;28;38515;-79
2023/07/23 01:24:25;;;;;;;14.30;10.77;;;15.60;99.90;;;;;;4997939;28;38889;-80
2023/07/23 01:27:29;;;;;;;15.82;10.38;;;15.60;99.90;;;;;;4987096;28;40193;-80
2023/07/23 01:30:27;;;;;;;16.98;10.40;;;15.60;99.90;;;;;;4982239;28;38055;-80
2023/07/23 01:33:29;;;;;;;12.65;9.55;;;15.60;99.90;;;;;;4950479;28;40551;-80
2023/07/23 01:40:04;;;;;;;19.83;9.82;;;15.60;99.90;;;;;;4985330;28;39985;-81
2023/07/23 01:42:33;;;;;;;16.92;10.05;;;15.60;99.90;;;;;;4973471;28;40100;-80
2023/07/23 01:45:45;;;;;;;14.82;9.80;;;15.60;99.90;;;;;;4993095;28;39724;-80
2023/07/23 01:48:52;;;;;;;14.43;9.48;;;15.60;99.90;;;;;;4992508;28;38353;-80
2023/07/23 01:52:06;;;;;;;18.17;10.10;;;15.60;99.90;;;;;;4944779;28;40479;-80
2023/07/23 01:55:39;;;;;;;17.58;10.73;;;15.70;99.90;;;;;;4980086;28;39954;-80
2023/07/23 02:02:17;;;;;;;16.52;10.45;;;15.60;99.90;;;;;;5020457;28;39276;-80
2023/07/23 02:05:17;;;;;;;20.33;10.35;;;15.60;99.90;;;;;;4960590;28;40066;-81
2023/07/23 02:20:33;;;;;;;;;;;15.60;99.90;;;;;;4914755;23;20044;-81
2023/07/23 03:10:34;;;;;;;14.45;9.27;;;15.70;99.90;;;;;;4967090;28;40161;-80
2023/07/23 04:04:47;;;;;;;12.98;7.70;;;16.10;99.90;;;;;;5770592;23;20044;-80
2023/07/23 04:08:29;;;;;;;13.27;8.80;;;16.00;99.90;;;;;;4934913;28;38137;-79
2023/07/23 04:11:36;;;;;;;16.23;8.93;;;16.00;99.90;;;;;;4948664;28;48947;-79
2023/07/23 04:22:00;;;;;;;12.30;8.32;;;16.10;99.90;;;;;;4834487;29;39577;-79
2023/07/23 04:28:43;;;;;;;16.75;9.18;;;16.20;99.90;;;;;;4866716;29;38266;-80
2023/07/23 04:32:01;;;;;;;15.40;9.52;;;16.20;99.90;;;;;;4838103;29;39475;-80
2023/07/23 04:34:50;;;;;;;18.65;9.35;;;16.20;99.90;;;;;;5237932;23;38969;-79
2023/07/23 04:37:17;;;;;;;17.83;9.13;;;16.20;99.90;;;;;;4924818;28;35564;-79
2023/07/23 04:39:43;;;;;;;15.38;8.93;;;16.20;99.90;;;;;;4940453;29;36923;-79
2023/07/23 04:42:09;;;;;;;14.93;9.05;;;16.10;99.90;;;;;;4946329;28;37788;-80
2023/07/23 04:44:35;;;;;;;13.98;8.20;;;16.10;99.90;;;;;;4949113;29;37899;-80
2023/07/23 04:47:01;;;;;;;18.55;8.82;;;16.10;99.90;;;;;;4953617;28;39253;-80
2023/07/23 04:49:31;;;;;;;16.73;8.82;;;16.10;99.90;;;;;;4954676;28;38730;-80
2023/07/23 04:51:57;;;;;;;18.98;9.10;;;16.10;99.90;;;;;;4944425;28;39187;-78
2023/07/23 04:54:23;;;;;;;17.50;7.63;;;16.00;99.90;;;;;;4954633;28;38675;-80
2023/07/23 04:56:50;;;;;;;13.10;8.25;;;16.10;99.90;;;;;;4941024;29;38305;-79
2023/07/23 04:59:16;;;;;;;17.10;8.27;;;16.00;99.90;;;;;;4941322;28;36532;-79
2023/07/23 05:01:42;;;;;;;14.27;8.25;;;16.00;99.90;;;;;;4940789;29;38329;-80
2023/07/23 05:04:10;;;;;;;19.35;8.60;;;15.90;99.90;;;;;;4956371;28;39898;-79
2023/07/23 05:06:36;;;;;;;11.45;8.43;;;15.80;99.90;;;;;;4956434;28;38597;-78
2023/07/23 05:09:25;;;;;;;14.02;8.73;;;15.80;99.90;;;;;;4933484;28;36565;-80
2023/07/23 05:12:01;;;;;;;13.05;8.68;;;15.70;99.90;;;;;;4923499;28;39759;-79
2023/07/23 05:14:54;;;;;;;13.55;8.95;;;15.70;99.90;;;;;;4912123;29;49895;-77
2023/07/23 05:17:27;;;;;;;16.15;9.07;;;15.60;99.90;;;;;;4940681;28;39015;-79
2023/07/23 05:24:12;;;;;;;15.38;8.88;;;15.50;99.90;;;;;;4931944;28;41206;-80
2023/07/23 05:27:27;;;;;;;13.93;9.38;;;15.50;99.90;;;;;;4910386;28;49992;-80
2023/07/23 05:30:41;;;;;;;15.32;8.52;;;15.40;99.90;;;;;;4921199;28;38705;-79
2023/07/23 05:34:01;;;;;;;15.43;8.43;;;15.30;99.90;;;;;;4942671;28;38581;-80
2023/07/23 05:37:08;;;;;;;14.30;8.75;;;15.30;99.90;;;;;;4919062;28;40300;-80
2023/07/23 05:40:00;;;;;;;13.88;9.52;;;15.30;99.90;;;;;;4879141;29;40023;-79
2023/07/23 05:42:35;;;;;;;16.15;9.23;;;15.30;99.90;;;;;;5102109;23;49197;-80
2023/07/23 05:45:03;;;;;;;17.88;9.18;;;15.30;99.90;;;;;;4961329;28;37080;-80
2023/07/23 05:47:37;;;;;;;14.30;9.50;;;15.30;99.90;;;;;;4971902;28;39078;-80
2023/07/23 05:51:03;;;;;;;16.45;9.90;;;15.30;99.90;;;;;;4940408;28;39832;-80
2023/07/23 05:54:01;;;;;;;17.52;9.55;;;15.30;99.90;;;;;;4921997;28;49131;-80
2023/07/23 05:56:36;;;;;;;16.00;9.43;;;15.20;99.90;;;;;;4949229;28;39368;-79
2023/07/23 05:59:50;;;;;;;15.38;9.20;;;15.30;99.90;;;;;;4937163;28;39734;-79
2023/07/23 06:02:31;;;;;;;19.42;9.30;;;15.30;99.90;;;;;;4938442;28;39807;-79
2023/07/23 06:05:26;;;;;;;14.35;8.77;;;15.30;99.90;;;;;;5203022;23;20070;-81
2023/07/23 06:07:52;;;;;;;13.30;8.43;;;15.40;99.90;;;;;;4998165;23;38701;-80
2023/07/23 06:10:18;;;;;;;15.52;8.88;;;15.30;99.90;;;;;;5002176;23;38988;-80
2023/07/23 06:12:45;;;;;;;15.75;9.45;;;15.40;99.90;;;;;;4955952;29;38815;-80
2023/07/23 06:15:11;;;;;;;16.70;9.27;;;15.40;99.90;;;;;;4955856;28;37357;-80
2023/07/23 06:17:37;;;;;;;15.55;8.95;;;15.40;99.90;;;;;;4955549;28;37632;-80
2023/07/23 06:20:04;;;;;;;15.80;8.88;;;15.40;99.90;;;;;;4954467;28;39140;-80
2023/07/23 06:22:30;;;;;;;17.10;10.07;;;15.40;99.90;;;;;;4954371;29;47003;-80
2023/07/23 06:24:56;;;;;;;14.50;8.75;;;15.50;99.90;;;;;;4953221;29;37907;-80
2023/07/23 06:27:22;;;;;;;13.70;8.40;;;15.50;99.90;;;;;;4955978;28;38426;-80
2023/07/23 06:29:48;;;;;;;15.07;9.38;;;15.50;99.90;;;;;;4954692;29;38835;-80
2023/07/23 06:32:15;;;;;;;16.00;8.93;;;15.50;99.90;;;;;;4951349;28;38407;-79
2023/07/23 06:34:45;;;;;;;13.98;8.88;;;15.50;99.90;;;;;;4954628;28;38563;-79
2023/07/23 06:37:18;;;;;;;14.32;8.80;;;15.50;99.90;;;;;;4947907;28;38611;-80
2023/07/23 06:39:48;;;;;;;17.42;9.38;;;15.60;99.90;;;;;;4940953;28;39503;-80
2023/07/23 06:42:27;;;;;;;13.45;8.90;;;15.60;99.90;;;;;;4941132;28;38509;-80
2023/07/23 06:45:18;;;;;;;16.40;8.98;;;15.50;99.90;;;;;;4942296;28;37721;-80
2023/07/23 06:47:59;;;;;;;16.85;8.57;;;15.60;99.90;;;;;;4928094;28;49499;-80
2023/07/23 06:50:39;;;;;;;16.00;8.48;;;15.60;99.90;;;;;;4950291;28;39416;-80
2023/07/23 06:53:09;;;;;;;14.43;8.23;;;15.60;99.90;;;;;;4938235;28;38239;-82
2023/07/23 06:56:45;;;;;;;15.15;8.13;;;15.70;99.90;;;;;;4951115;28;39226;-80
2023/07/23 06:59:38;;;;;;;13.35;8.05;;;15.80;99.90;;;;;;4919342;28;50005;-80
2023/07/23 07:02:18;;;;;;;14.82;7.38;;;15.90;99.90;;;;;;4915580;28;40237;-80
2023/07/23 07:07:32;;;;;;;11.63;7.85;;;16.00;99.90;;;;;;4978352;28;20039;-79
2023/07/23 07:10:03;;;;;;;13.18;7.70;;;16.00;99.90;;;;;;4979730;28;37286;-80
2023/07/23 07:12:46;;;;;;;9.57;7.30;;;16.00;99.90;;;;;;4928934;28;40217;-80
2023/07/23 07:15:22;;;;;;;11.40;7.10;;;16.00;99.90;;;;;;4910235;28;39239;-81
2023/07/23 07:18:13;;;;;;;12.23;7.25;;;16.00;99.90;;;;;;4945768;28;39627;-80
2023/07/23 07:21:39;;;;;;;9.43;6.50;;;16.10;99.90;;;;;;4941962;28;50227;-80
2023/07/23 07:24:48;;;;;;;12.65;7.72;;;16.10;99.90;;;;;;4960049;28;38739;-79
2023/07/23 07:31:03;;;;;;;10.65;7.03;;;16.10;99.90;;;;;;5561027;23;20128;-80
2023/07/23 07:33:47;;;;;;;15.57;7.72;;;16.10;99.90;;;;;;4881504;28;49207;-80
2023/07/23 07:36:17;;;;;;;11.25;7.72;;;16.20;99.90;;;;;;4948345;28;39750;-80
2023/07/23 07:39:02;;;;;;;10.65;7.63;;;16.20;99.90;;;;;;4954170;28;38026;-80
2023/07/23 07:42:15;;;;;;;14.35;7.32;;;16.20;99.90;;;;;;4940402;28;50036;-81
2023/07/23 07:45:28;;;;;;;11.80;6.95;;;16.20;99.90;;;;;;4935775;28;50493;-80
2023/07/23 07:49:07;;;;;;;10.93;7.15;;;16.30;99.90;;;;;;4920667;28;50330;-81
2023/07/23 07:51:53;;;;;;;11.77;7.40;;;16.30;99.90;;;;;;4934398;28;39754;-80
2023/07/23 07:58:26;;;;;;;11.98;6.60;;;16.40;99.90;;;;;;4948559;28;49204;-80
2023/07/23 08:01:17;;;;;;;10.45;7.32;;;16.40;99.90;;;;;;4955517;28;48874;-80
2023/07/23 08:04:20;;;;;;;10.20;7.28;;;16.40;99.90;;;;;;4906461;28;50260;-81
2023/07/23 08:07:25;;;;;;;9.75;7.22;;;16.40;99.90;;;;;;4957989;28;39144;-81
2023/07/23 08:10:24;;;;;;;;;;;16.50;99.90;;;;;;4929002;28;50355;-80
2023/07/23 08:15:59;;;;;;;11.25;7.88;;;16.50;99.90;;;;;;4964831;23;20062;-80
2023/07/23 08:18:28;;;;;;;11.50;8.13;;;16.40;99.90;;;;;;4960935;28;37285;-79
2023/07/23 08:21:02;;;;;;;11.27;8.15;;;16.40;99.90;;;;;;4928274;28;36964;-80
2023/07/23 08:26:30;;;;;;;12.18;8.50;;;16.40;99.90;;;;;;4968133;23;20048;-80
2023/07/23 08:29:29;;;;;;;11.60;8.05;;;16.40;99.90;;;;;;4926015;28;39606;-80
2023/07/23 08:32:30;;;;;;;11.23;8.15;;;16.50;99.90;;;;;;4886045;29;36757;-80
2023/07/23 08:37:52;;;;;;;10.60;7.90;;;16.50;99.90;;;;;;4987479;23;20052;-80
2023/07/23 08:40:19;;;;;;;12.38;8.18;;;16.60;99.90;;;;;;4930532;29;37815;-80
2023/07/23 08:43:12;;;;;;;13.60;8.73;;;16.60;99.90;;;;;;4926853;29;36292;-81
2023/07/23 08:45:56;;;;;;;;;;;16.70;99.90;;;;;;4921309;29;48018;-79
2023/07/23 08:48:27;;;;;;;14.85;8.35;;;16.70;99.90;;;;;;4945046;28;39078;-80
2023/07/23 08:50:55;;;;;;;11.18;8.05;;;16.70;99.90;;;;;;4917049;29;36889;-80
2023/07/23 08:53:22;;;;;;;9.35;8.02;;;16.70;99.90;;;;;;4927850;28;36128;-80
2023/07/23 08:55:48;;;;;;;11.55;7.85;;;16.80;99.90;;;;;;4929476;29;37944;-79
2023/07/23 08:58:22;;;;;;;10.85;8.10;;;16.80;99.90;;;;;;4940721;28;39503;-80
2023/07/23 09:00:49;;;;;;;10.40;7.53;;;16.90;99.90;;;;;;4946098;28;39448;-79
2023/07/23 09:03:21;;;;;;;13.50;8.98;;;16.80;99.90;;;;;;4926059;29;36340;-78
2023/07/23 09:05:47;;;;;;;11.93;8.65;;;16.80;99.90;;;;;;4922287;29;38073;-80
2023/07/23 09:08:13;;;;;;;11.32;8.95;;;16.70;99.90;;;;;;4927737;28;37340;-79
2023/07/23 09:10:40;;;;;;;10.05;8.43;;;16.50;99.90;;;;;;4932046;29;37373;-79
2023/07/23 09:13:15;;;;;;;12.40;8.98;;;16.40;99.90;;;;;;4925217;29;37469;-80
2023/07/23 09:15:42;;;;;;;19.40;9.20;;;16.30;99.90;;;;;;4931797;28;37695;-79
2023/07/23 09:18:09;;;;;;;13.73;10.00;;;16.30;99.90;;;;;;4937603;29;39197;-79
2023/07/23 09:20:35;;;;;;;12.07;8.82;;;16.30;99.90;;;;;;4928835;29;37526;-79
2023/07/23 09:23:08;;;;;;;11.32;9.65;;;16.30;99.90;;;;;;4922869;29;36765;-80
2023/07/23 09:25:34;;;;;;;11.23;9.23;;;16.20;99.90;;;;;;4925564;29;47694;-79
2023/07/23 09:28:00;;;;;;;15.25;10.27;;;16.20;99.90;;;;;;4920633;29;37587;-79
2023/07/23 09:30:27;;;;;;;14.20;9.88;;;16.20;99.90;;;;;;4921387;29;38114;-80
2023/07/23 09:32:58;;;;;;;12.50;10.23;;;16.20;99.90;;;;;;4932781;28;37332;-79
2023/07/23 09:35:28;;;;;;;12.90;9.80;;;16.20;99.90;;;;;;4928155;28;38793;-80
2023/07/23 09:37:58;;;;;;;16.52;10.90;;;16.30;99.90;;;;;;4943879;28;38602;-79
2023/07/23 09:40:35;;;;;;;15.48;10.65;;;16.40;99.90;;;;;;4930918;28;37244;-80
2023/07/23 09:43:02;;;;;;;14.73;9.40;;;16.50;99.90;;;;;;4922504;29;36575;-80
2023/07/23 09:45:35;;;;;;;15.40;10.85;;;16.50;99.90;;;;;;4912117;28;47132;-80
2023/07/23 09:48:02;;;;;;;14.38;9.60;;;16.50;99.90;;;;;;4939751;28;38500;-80
2023/07/23 09:50:30;;;;;;;17.48;10.70;;;16.60;99.90;;;;;;4930949;28;47291;-79
2023/07/23 09:52:56;;;;;;;16.55;11.25;;;16.60;99.90;;;;;;4925236;28;36124;-79
2023/07/23 09:55:23;;;;;;;13.55;9.77;;;16.80;99.90;;;;;;4945805;28;40352;-80
2023/07/23 09:57:51;;;;;;;14.70;10.77;;;16.80;99.90;;;;;;4919763;28;37469;-80
2023/07/23 10:00:18;;;;;;;16.23;10.32;;;16.90;99.90;;;;;;4934838;28;37848;-79
2023/07/23 10:02:48;;;;;;;12.52;9.48;;;17.00;99.90;;;;;;4919972;29;37276;-80
2023/07/23 10:05:18;;;;;;;10.88;8.45;;;17.00;99.90;;;;;;4932411;29;38003;-80
2023/07/23 10:07:46;;;;;;;10.75;8.27;;;17.10;99.90;;;;;;4928417;29;37885;-80
2023/07/23 10:10:13;;;;;;;10.90;8.65;;;17.20;99.90;;;;;;4923501;28;38172;-80
2023/07/23 10:12:40;;;;;;;11.20;7.72;;;17.30;99.90;;;;;;4922694;29;35850;-79
2023/07/23 10:15:07;;;;;;;13.75;9.27;;;17.30;99.90;;;;;;4928646;28;37570;-80
2023/07/23 10:17:43;;;;;;;11.27;9.00;;;17.20;99.90;;;;;;4937309;28;39020;-80
2023/07/23 10:20:13;;;;;;;11.57;8.80;;;17.30;99.90;;;;;;4932839;29;36611;-78
2023/07/23 10:22:39;;;;;;;11.82;8.60;;;17.30;99.90;;;;;;4931307;28;37550;-78
2023/07/23 10:25:32;;;;;;;13.35;8.48;;;17.30;99.90;;;;;;4920714;28;39738;-78
2023/07/23 10:28:00;;;;;;;11.73;8.30;;;17.40;99.90;;;;;;4922041;29;39229;-79
2023/07/23 10:30:28;;;;;;;11.27;7.78;;;17.50;99.90;;;;;;4924699;28;38342;-79
2023/07/23 10:33:10;;;;;;;10.50;7.38;;;17.60;99.90;;;;;;4921909;29;36077;-78
2023/07/23 10:35:54;;;;;;;8.90;6.70;;;17.70;99.90;;;;;;4929110;29;47376;-79
2023/07/23 10:38:22;;;;;;;8.98;6.22;;;17.70;99.90;;;;;;4901843;29;38363;-77
2023/07/23 10:40:49;;;;;;;11.50;7.07;;;17.90;99.90;;;;;;4903801;29;38922;-77
2023/07/23 10:43:16;;;;;;;11.13;6.47;;;18.10;99.90;;;;;;4904607;29;35735;-79
2023/07/23 10:45:51;;;;;;;9.07;6.35;;;18.10;99.90;;;;;;4913736;29;37681;-77
2023/07/23 10:48:17;;;;;;;9.02;7.00;;;18.30;99.90;;;;;;4921473;29;38911;-81
2023/07/23 10:51:00;;;;;;;8.55;6.25;;;18.40;99.90;;;;;;4923470;28;38499;-80
2023/07/23 10:53:31;;;;;;;7.75;6.40;;;18.50;99.90;;;;;;4922473;28;37197;-79
2023/07/23 10:56:00;;;;;;;9.20;6.45;;;18.50;99.90;;;;;;4923984;29;40206;-80
2023/07/23 10:58:31;;;;;;;12.10;6.97;;;18.60;99.90;;;;;;4921115;29;39017;-81
2023/07/23 11:00:59;;;;;;;8.68;7.05;;;18.50;99.90;;;;;;4939279;29;39674;-81
2023/07/23 11:03:26;;;;;;;8.35;6.20;;;18.60;99.90;;;;;;4928134;29;37432;-78
2023/07/23 11:05:57;;;;;;;6.82;5.80;;;18.60;99.90;;;;;;4920041;29;40397;-80
2023/07/23 11:08:26;;;;;;;8.00;6.05;;;18.60;99.90;;;;;;4902880;29;38590;-79
2023/07/23 11:11:01;;;;;;;7.55;6.25;;;18.60;99.90;;;;;;4916883;29;37456;-79
2023/07/23 11:13:35;;;;;;;6.15;4.88;;;18.70;99.90;;;;;;4926159;29;48728;-79
2023/07/23 11:16:02;;;;;;;6.00;4.93;;;18.80;99.90;;;;;;4916723;29;37804;-79
2023/07/23 11:18:31;;;;;;;6.07;5.30;;;18.90;99.90;;;;;;4922240;29;37359;-79
2023/07/23 11:20:59;;;;;;;5.65;4.60;;;19.10;99.90;;;;;;4928875;29;40308;-80
2023/07/23 11:23:26;;;;;;;6.18;5.25;;;19.20;99.90;;;;;;4926467;29;37300;-78
2023/07/23 11:25:52;;;;;;;5.55;4.50;;;19.20;99.90;;;;;;4917328;29;38555;-79
2023/07/23 11:28:22;;;;;;;5.90;5.03;;;19.30;99.90;;;;;;4912981;29;37412;-79
2023/07/23 11:30:50;;;;;;;6.65;5.93;;;19.70;99.90;;;;;;4910274;29;37431;-79
2023/07/23 11:33:17;;;;;;;7.88;6.13;;;20.00;99.90;;;;;;4912021;29;36896;-80
2023/07/23 11:35:43;;;;;;;7.32;5.90;;;20.20;99.90;;;;;;4914960;29;39103;-80
2023/07/23 11:38:10;;;;;;;7.03;6.32;;;20.40;99.90;;;;;;4931684;29;37889;-80
2023/07/23 11:40:36;;;;;;;7.55;6.00;;;20.20;99.90;;;;;;4930100;29;37425;-80
2023/07/23 11:43:07;;;;;;;8.63;5.93;;;20.10;99.90;;;;;;4948910;28;37467;-80
2023/07/23 11:45:51;;;;;;;7.22;4.90;;;20.10;99.90;;;;;;4936571;29;37909;-80
2023/07/23 11:48:24;;;;;;;5.22;4.35;;;20.10;99.90;;;;;;4939247;28;38011;-79
2023/07/23 11:50:54;;;;;;;;;;;20.30;99.90;;;;;;4948202;28;37661;-80
2023/07/23 11:53:34;;;;;;;6.70;4.30;;;20.40;99.90;;;;;;4940485;29;36526;-80
2023/07/23 11:56:10;;;;;;;4.35;3.75;;;20.50;99.90;;;;;;4928830;29;38057;-79
2023/07/23 11:58:37;;;;;;;5.00;3.60;;;20.40;99.90;;;;;;4925273;29;47864;-81
2023/07/23 12:01:04;;;;;;;4.18;3.78;;;20.30;99.90;;;;;;4935347;29;36948;-80
2023/07/23 12:03:45;;;;;;;4.60;4.10;;;20.20;99.90;;;;;;4936537;29;36121;-80
2023/07/23 12:06:15;;;;;;;4.22;3.83;;;20.10;99.90;;;;;;4935981;28;39811;-80
2023/07/23 12:08:49;;;;;;;5.80;3.78;;;20.00;99.90;;;;;;4960488;28;39079;-80
2023/07/23 12:11:16;;;;;;;5.40;3.65;;;20.00;99.90;;;;;;4933270;29;37944;-79
2023/07/23 12:13:51;;;;;;;7.07;3.22;;;20.20;99.90;;;;;;4931605;29;37327;-81
2023/07/23 12:16:41;;;;;;;4.95;2.78;;;20.70;99.90;;;;;;4953509;28;38632;-81
2023/07/23 12:19:08;;;;;;;4.38;2.75;;;21.40;99.90;;;;;;4942224;28;37212;-80
2023/07/23 12:21:39;;;;;;;6.05;2.80;;;21.60;99.90;;;;;;4943457;29;36948;-80
2023/07/23 12:24:15;;;;;;;4.73;3.03;;;22.00;99.90;;;;;;4926061;29;37001;-79
2023/07/23 12:26:42;;;;;;;8.00;3.00;;;22.10;99.90;;;;;;4940718;29;38864;-79
2023/07/23 12:29:10;;;;;;;5.30;2.90;;;21.80;99.90;;;;;;4930140;29;39631;-80
2023/07/23 12:31:45;;;;;;;12.68;2.90;;;21.80;99.90;;;;;;4932025;29;39435;-80
2023/07/23 12:34:13;;;;;;;8.30;3.38;;;22.10;99.80;;;;;;4925405;29;38368;-81
2023/07/23 12:36:40;;;;;;;6.10;2.95;;;22.00;99.90;;;;;;4911359;28;37796;-80
2023/07/23 12:39:08;;;;;;;6.25;2.78;;;22.20;99.90;;;;;;4935879;28;38998;-81
2023/07/23 12:41:39;;;;;;;8.75;3.38;;;22.20;99.90;;;;;;4951490;28;37471;-80
2023/07/23 12:44:05;;;;;;;9.10;2.60;;;22.20;98.30;;;;;;4948919;28;37485;-80
2023/07/23 12:46:35;;;;;;;7.38;2.90;;;22.10;99.90;;;;;;4945856;29;37233;-78
2023/07/23 12:49:01;;;;;;;4.55;2.45;;;22.50;99.90;;;;;;4944928;29;39149;-79
2023/07/23 12:51:31;;;;;;;7.07;2.90;;;22.70;96.70;;;;;;4942664;29;47401;-79
2023/07/23 12:53:57;;;;;;;4.15;2.85;;;22.70;96.70;;;;;;4945235;29;36078;-78
2023/07/23 12:56:23;;;;;;;7.40;2.60;;;22.90;95.70;;;;;;4943091;28;37578;-79
2023/07/23 12:58:49;;;;;;;4.90;2.60;;;23.20;91.30;;;;;;4941859;29;37519;-79
2023/07/23 13:01:15;;;;;;;4.97;2.80;;;23.40;91.00;;;;;;4940161;28;38652;-77
2023/07/23 13:03:44;;;;;;;5.03;2.60;;;23.50;91.60;;;;;;4944588;28;38401;-79
2023/07/23 13:06:10;;;;;;;7.15;3.00;;;23.70;92.00;;;;;;4934289;28;37711;-80
2023/07/23 13:08:37;;;;;;;5.82;2.70;;;23.70;91.50;;;;;;4933750;28;38644;-79
2023/07/23 13:11:03;;;;;;;8.30;2.72;;;23.70;88.60;;;;;;4932060;28;37302;-79
2023/07/23 13:13:30;;;;;;;5.90;2.90;;;23.50;80.40;;;;;;4939406;28;37634;-79
2023/07/23 13:15:56;;;;;;;7.68;3.10;;;23.40;91.30;;;;;;4941117;28;39908;-79
2023/07/23 13:18:28;;;;;;;9.55;3.28;;;23.40;90.30;;;;;;4937120;28;39465;-79
2023/07/23 13:20:54;;;;;;;6.00;2.67;;;23.40;92.80;;;;;;4942551;29;38198;-80
2023/07/23 13:23:20;;;;;;;8.10;3.20;;;23.40;93.60;;;;;;4940470;28;36493;-79
2023/07/23 13:25:48;;;;;;;6.43;2.83;;;23.20;92.30;;;;;;4942515;29;39338;-79
2023/07/23 13:28:15;;;;;;;7.70;3.03;;;23.10;90.20;;;;;;4937241;28;39159;-79
2023/07/23 13:30:41;;;;;;;8.30;3.25;;;22.70;97.20;;;;;;4946748;28;37870;-80
2023/07/23 13:33:07;;;;;;;6.70;3.08;;;22.70;99.90;;;;;;4949553;28;36725;-80
2023/07/23 13:35:33;;;;;;;7.97;3.08;;;22.50;99.60;;;;;;4945484;29;39073;-79
2023/07/23 13:38:09;;;;;;;7.90;3.95;;;22.60;99.90;;;;;;4945521;28;38096;-80
2023/07/23 13:40:37;;;;;;;6.05;2.53;;;22.70;97.90;;;;;;4933801;28;48458;-79
2023/07/23 13:43:03;;;;;;;6.18;2.10;;;22.90;99.90;;;;;;4945202;28;37827;-80
2023/07/23 13:45:30;;;;;;;9.25;2.30;;;23.20;98.80;;;;;;4946439;29;40026;-79
2023/07/23 13:47:56;;;;;;;5.70;2.58;;;23.00;91.40;;;;;;4942758;28;37409;-80
2023/07/23 13:50:22;;;;;;;10.75;2.60;;;22.60;94.50;;;;;;4947944;28;38796;-79
2023/07/23 13:52:48;;;;;;;4.13;2.50;;;22.40;93.10;;;;;;4948556;29;36449;-80
2023/07/23 13:55:15;;;;;;;5.43;2.67;;;22.40;98.90;;;;;;4956255;28;39029;-80
2023/07/23 13:57:41;;;;;;;7.13;2.95;;;22.40;96.30;;;;;;4950070;28;39969;-80
2023/07/23 14:00:07;;;;;;;7.35;2.60;;;22.60;98.80;;;;;;4947136;29;39190;-80
2023/07/23 14:02:34;;;;;;;5.07;2.83;;;22.60;93.50;;;;;;4940131;28;38754;-80
2023/07/23 14:05:01;;;;;;;8.25;2.80;;;22.50;92.80;;;;;;4943262;28;39342;-79
2023/07/23 14:07:31;;;;;;;7.10;2.80;;;22.60;96.90;;;;;;4957081;28;39666;-79
2023/07/23 14:10:02;;;;;;;7.47;3.00;;;22.60;90.10;;;;;;4950170;29;37339;-79
2023/07/23 14:12:31;;;;;;;10.57;3.63;;;22.60;91.80;;;;;;4944992;28;37715;-79
2023/07/23 14:14:57;;;;;;;4.97;3.00;;;22.90;84.20;;;;;;4922322;29;38219;-79
2023/07/23 14:17:23;;;;;;;5.30;3.15;;;23.30;86.70;;;;;;4945080;28;38312;-79
2023/07/23 14:19:49;;;;;;;4.80;3.03;;;23.80;71.10;;;;;;4939890;29;38591;-79
2023/07/23 14:22:23;;;;;;;4.85;2.90;;;24.10;71.70;;;;;;4936238;28;37216;-80
2023/07/23 14:24:49;;;;;;;7.07;2.65;;;24.10;58.00;;;;;;4932526;29;39929;-79
2023/07/23 14:27:15;;;;;;;6.82;3.28;;;23.80;65.40;;;;;;4925360;28;39359;-79
2023/07/23 14:29:41;;;;;;;8.13;3.05;;;23.80;67.90;;;;;;4918150;29;37571;-79
2023/07/23 14:32:09;;;;;;;8.18;3.45;;;23.50;61.20;;;;;;4928336;28;36756;-79
2023/07/23 14:34:45;;;;;;;6.60;2.95;;;23.20;77.70;;;;;;4939224;29;37668;-79
2023/07/23 14:37:11;;;;;;;8.73;3.03;;;23.10;86.80;;;;;;4940118;28;38389;-79
2023/07/23 14:39:41;;;;;;;6.40;2.58;;;23.20;77.30;;;;;;4943900;28;39236;-79
2023/07/23 14:42:07;;;;;;;6.90;2.47;;;23.10;89.20;;;;;;4940128;28;36092;-79
2023/07/23 14:44:34;;;;;;;7.10;2.70;;;22.90;83.30;;;;;;4946194;28;38598;-79
2023/07/23 14:47:00;;;;;;;8.57;3.28;;;22.70;93.10;;;;;;4934928;29;37885;-79
2023/07/23 14:49:28;;;;;;;5.43;2.97;;;22.70;94.50;;;;;;4940594;29;38447;-79
2023/07/23 14:51:57;;;;;;;10.05;3.15;;;22.70;92.60;;;;;;4933876;29;36114;-79
2023/07/23 14:54:24;;;;;;;6.85;3.33;;;22.80;94.60;;;;;;4917658;28;38545;-79
2023/07/23 14:56:53;;;;;;;9.95;3.38;;;22.60;92.70;;;;;;4925493;29;37929;-79
2023/07/23 14:59:19;;;;;;;9.20;3.65;;;22.60;98.80;;;;;;4923816;29;37374;-79
2023/07/23 15:01:45;;;;;;;7.22;3.60;;;22.70;94.20;;;;;;4937199;29;36220;-79
2023/07/23 15:04:11;;;;;;;11.48;3.60;;;22.80;95.60;;;;;;4923151;28;38396;-79
2023/07/23 15:06:40;;;;;;;8.07;3.17;;;22.70;94.50;;;;;;4943323;29;40877;-79
2023/07/23 15:09:06;;;;;;;7.07;3.30;;;22.50;96.50;;;;;;4934696;29;37226;-79
2023/07/23 15:11:36;;;;;;;12.95;3.55;;;22.50;99.20;;;;;;4915841;29;20048;-79
2023/07/23 15:14:05;;;;;;;7.13;2.78;;;22.40;98.40;;;;;;4920878;29;37898;-79
2023/07/23 15:16:32;;;;;;;9.02;3.17;;;22.10;99.90;;;;;;4948247;29;38859;-79
2023/07/23 15:18:58;;;;;;;7.70;3.10;;;21.90;99.90;;;;;;4944148;29;37302;-79
2023/07/23 15:21:24;;;;;;;7.70;3.00;;;21.90;99.90;;;;;;4923065;29;36151;-79
2023/07/23 15:23:51;;;;;;;9.35;3.20;;;21.90;99.90;;;;;;4939182;29;40949;-79
2023/07/23 15:26:22;;;;;;;12.13;3.20;;;22.00;99.90;;;;;;4946397;28;38651;-79
2023/07/23 15:28:49;;;;;;;12.20;3.87;;;22.00;99.70;;;;;;4928017;29;36982;-80
2023/07/23 15:31:15;;;;;;;7.63;3.08;;;22.00;99.90;;;;;;4940720;28;36012;-79
2023/07/23 15:33:42;;;;;;;7.70;3.00;;;22.00;99.90;;;;;;4923001;29;38404;-79
2023/07/23 15:36:08;;;;;;;7.82;2.97;;;22.00;99.90;;;;;;4941907;28;39313;-79
2023/07/23 15:38:35;;;;;;;8.32;2.92;;;22.00;96.60;;;;;;4942398;29;38419;-79
2023/07/23 15:41:02;;;;;;;8.27;3.28;;;22.00;99.90;;;;;;4943712;28;37541;-79
2023/07/23 15:43:28;;;;;;;9.70;3.00;;;22.10;99.20;;;;;;4937482;29;37694;-79
2023/07/23 15:45:54;;;;;;;6.80;3.08;;;22.20;99.90;;;;;;4931104;29;37293;-79
2023/07/23 15:48:20;;;;;;;6.13;2.70;;;22.30;99.90;;;;;;4939873;29;37038;-79
2023/07/23 15:50:46;;;;;;;8.27;3.90;;;22.30;98.10;;;;;;4948629;29;37788;-79
2023/07/23 15:53:13;;;;;;;11.00;3.25;;;22.20;98.00;;;;;;4949009;28;40231;-80
2023/07/23 15:55:39;;;;;;;9.85;3.17;;;22.10;99.90;;;;;;4933648;29;38289;-80